Time;durP1;ratioP1;P1;durP2;ratioP2;P2;SDS_P1;SDS_P2;PMS_P1;PMS_P2;Temp;Humidity;BMP_temperature;BMP_pressure;BME280_temperature;BME280_humidity;BME280_pressure;Samples;Min_cycle;Max_cycle;Signal;HPM_P1;HPM_P2
2022/08/13 00:02:10;;;;;;;1.00;0.20;;;;;;;17.99;76.05;100469.47;5083972;28;20032;-55
2022/08/13 00:04:38;;;;;;;2.95;0.28;;;;;;;17.90;76.67;100481.19;5070764;28;20043;-51
2022/08/13 00:07:07;;;;;;;;;;;;;;;;;;;;;
2022/08/13 00:09:30;;;;;;;0.85;0.20;;;;;;;17.93;74.61;100466.81;5067931;28;20143;-55
2022/08/13 00:14:40;;;;;;;1.02;0.20;;;;;;;18.51;71.75;100473.41;5071595;28;20510;-52
2022/08/13 00:17:14;;;;;;;0.70;0.17;;;;;;;18.43;72.62;100466.47;5049606;28;20082;-55
2022/08/13 00:19:42;;;;;;;1.10;0.30;;;;;;;18.26;74.27;100474.91;5062681;28;20036;-58
2022/08/13 00:22:08;;;;;;;0.50;0.30;;;;;;;18.26;73.73;100469.66;5067624;28;20031;-57
2022/08/13 00:24:34;;;;;;;4.43;0.30;;;;;;;18.16;75.26;100467.34;5051059;28;20037;-52
2022/08/13 00:27:01;;;;;;;2.40;0.20;;;;;;;18.01;75.89;100462.19;5073314;28;20047;-61
2022/08/13 00:29:27;;;;;;;1.85;0.30;;;;;;;18.03;74.77;100462.00;5047758;28;20043;-51
2022/08/13 00:31:53;;;;;;;2.20;0.50;;;;;;;18.03;75.68;100464.63;5060017;28;20032;-58
2022/08/13 00:34:19;;;;;;;0.40;0.20;;;;;;;18.16;74.14;100462.06;5054394;28;20024;-51
2022/08/13 00:36:47;;;;;;;0.43;0.20;;;;;;;18.14;75.48;100467.53;5066241;28;20063;-57
2022/08/13 00:39:13;;;;;;;0.52;0.30;;;;;;;17.91;77.28;100461.72;5055384;28;20426;-58
2022/08/13 00:41:44;;;;;;;1.13;0.40;;;;;;;17.67;79.25;100462.16;5065252;28;20094;-54
2022/08/13 00:44:16;;;;;;;1.05;0.40;;;;;;;17.56;80.52;100448.44;5064886;28;20060;-56
2022/08/13 00:46:44;;;;;;;1.52;0.30;;;;;;;17.48;80.62;100460.97;5068057;28;20024;-55
2022/08/13 00:49:12;;;;;;;0.70;0.28;;;;;;;17.45;80.38;100456.06;5066038;28;20044;-58
2022/08/13 00:51:40;;;;;;;0.60;0.20;;;;;;;17.45;80.44;100451.63;5064802;28;20028;-55
2022/08/13 00:54:13;;;;;;;2.47;0.40;;;;;;;17.43;80.35;100445.72;5046706;28;20036;-56
2022/08/13 00:56:39;;;;;;;1.55;0.30;;;;;;;17.45;80.13;100445.53;5049580;28;20029;-57
2022/08/13 00:59:13;;;;;;;2.25;0.20;;;;;;;17.83;77.55;100443.44;5067429;28;20044;-54
2022/08/13 01:01:42;;;;;;;0.82;0.20;;;;;;;17.83;78.16;100438.16;5047377;28;20036;-55
2022/08/13 01:04:07;;;;;;;1.95;0.30;;;;;;;17.70;78.86;100438.88;5067254;28;20473;-56
2022/08/13 01:06:35;;;;;;;2.53;0.22;;;;;;;17.54;79.56;100442.56;5067744;28;20038;-49
2022/08/13 01:09:02;;;;;;;1.52;0.30;;;;;;;17.54;79.99;100429.38;5055823;28;20131;-54
2022/08/13 01:11:32;;;;;;;1.48;0.60;;;;;;;17.41;80.76;100437.19;5073679;28;20028;-61
2022/08/13 01:13:59;;;;;;;0.70;0.30;;;;;;;17.34;81.78;100441.59;5067871;28;20109;-58
2022/08/13 01:16:27;;;;;;;1.40;0.28;;;;;;;17.27;81.84;100437.25;5071823;28;20063;-54
2022/08/13 01:18:53;;;;;;;3.10;0.38;;;;;;;17.20;83.03;100426.66;5070470;28;20020;-58
2022/08/13 01:21:23;;;;;;;0.50;0.30;;;;;;;17.10;83.37;100428.78;5067650;28;20028;-55
2022/08/13 01:23:51;;;;;;;0.50;0.20;;;;;;;17.03;83.39;100441.06;5064862;28;20576;-59
2022/08/13 01:26:18;;;;;;;0.85;0.30;;;;;;;17.13;81.70;100434.50;5068047;28;20598;-52
2022/08/13 01:28:45;;;;;;;0.38;0.20;;;;;;;17.37;79.76;100428.03;5067487;28;20048;-56
2022/08/13 01:31:14;;;;;;;1.00;0.30;;;;;;;17.34;81.20;100431.06;5068040;28;20103;-57
2022/08/13 01:33:41;;;;;;;1.08;0.20;;;;;;;17.13;82.06;100423.97;5050536;28;20369;-56
2022/08/13 01:36:08;;;;;;;1.90;0.30;;;;;;;17.00;82.42;100425.69;5069741;28;20097;-54
2022/08/13 01:38:36;;;;;;;2.85;0.20;;;;;;;17.07;81.81;100435.25;5068425;28;20038;-55
2022/08/13 01:41:03;;;;;;;0.57;0.30;;;;;;;17.11;81.66;100435.69;5068131;28;20552;-52
2022/08/13 01:43:30;;;;;;;1.95;0.25;;;;;;;17.06;81.66;100433.59;5069526;28;20060;-53
2022/08/13 01:45:58;;;;;;;0.55;0.30;;;;;;;17.36;77.48;100434.31;5066183;28;20024;-49
2022/08/13 01:51:21;;;;;;;1.67;0.30;;;;;;;17.92;75.07;100430.91;5052022;28;20094;-57
2022/08/13 01:53:58;;;;;;;0.68;0.28;;;;;;;17.71;77.61;100429.13;5064724;28;20038;-55
2022/08/13 01:56:24;;;;;;;3.10;0.30;;;;;;;17.44;80.48;100433.38;5044268;28;20035;-54
2022/08/13 01:58:55;;;;;;;3.92;0.30;;;;;;;17.20;81.18;100431.94;5042430;28;20036;-58
2022/08/13 02:01:25;;;;;;;1.05;0.30;;;;;;;17.05;82.45;100428.53;5050008;28;20032;-57
2022/08/13 02:03:56;;;;;;;1.38;0.30;;;;;;;17.06;81.74;100435.44;5067794;28;20064;-53
2022/08/13 02:06:40;;;;;;;1.80;0.30;;;;;;;16.99;82.10;100434.56;5051007;28;20044;-51
2022/08/13 02:09:07;;;;;;;1.00;0.30;;;;;;;16.89;83.64;100426.97;5055216;28;20052;-50
2022/08/13 02:11:35;;;;;;;2.65;0.40;;;;;;;16.83;84.94;100427.72;5068009;28;20043;-52
2022/08/13 02:14:03;;;;;;;1.02;0.20;;;;;;;16.79;84.18;100422.00;5067753;28;20031;-48
2022/08/13 02:16:36;;;;;;;0.60;0.22;;;;;;;16.81;83.85;100427.91;5065841;28;20718;-57
2022/08/13 02:19:06;;;;;;;2.92;0.28;;;;;;;16.79;84.59;100435.16;5067446;28;20035;-53
2022/08/13 02:21:34;;;;;;;1.00;0.40;;;;;;;16.77;85.83;100431.91;5056952;28;20032;-55
2022/08/13 02:24:03;;;;;;;1.15;0.40;;;;;;;16.70;86.38;100438.91;5061185;28;20035;-60
2022/08/13 02:26:32;;;;;;;0.75;0.30;;;;;;;16.69;85.30;100429.38;5066522;28;20040;-54
2022/08/13 02:29:00;;;;;;;0.50;0.28;;;;;;;16.73;85.94;100430.63;5040326;28;20158;-47
2022/08/13 02:31:28;;;;;;;3.03;0.30;;;;;;;16.66;86.75;100427.09;5066544;28;20021;-51
2022/08/13 02:33:55;;;;;;;1.05;0.45;;;;;;;16.59;87.10;100426.19;5047265;28;20477;-55
2022/08/13 02:36:22;;;;;;;1.48;0.30;;;;;;;16.53;87.23;100433.03;5068462;28;20512;-57
2022/08/13 02:39:03;;;;;;;6.53;0.68;;;;;;;16.51;86.75;100434.19;5052460;28;20047;-55
2022/08/13 02:41:38;;;;;;;0.73;0.63;;;;;;;16.47;88.22;100428.50;5068419;28;20262;-54
2022/08/13 02:44:05;;;;;;;2.72;0.30;;;;;;;16.42;86.46;100430.03;5068065;28;20075;-54
2022/08/13 02:46:31;;;;;;;1.70;0.30;;;;;;;16.65;84.09;100419.41;5068440;28;20020;-54
2022/08/13 02:48:58;;;;;;;1.33;0.30;;;;;;;16.71;83.21;100432.63;5063309;28;20444;-55
2022/08/13 02:51:25;;;;;;;1.02;0.30;;;;;;;16.82;83.23;100424.25;5067717;28;20029;-57
2022/08/13 02:53:52;;;;;;;2.70;0.30;;;;;;;16.82;84.07;100434.78;5065887;28;20123;-55
2022/08/13 02:56:18;;;;;;;2.20;0.30;;;;;;;16.87;82.24;100427.16;5061984;28;20152;-47
2022/08/13 02:58:45;;;;;;;0.60;0.30;;;;;;;16.91;82.43;100438.94;5067090;28;20037;-54
2022/08/13 03:01:14;;;;;;;0.50;0.30;;;;;;;16.94;81.83;100427.22;5068436;28;20074;-53
2022/08/13 03:03:40;;;;;;;1.67;0.30;;;;;;;17.04;80.64;100426.91;5046707;28;20039;-59
2022/08/13 03:06:10;;;;;;;2.67;0.47;;;;;;;17.05;77.88;100428.53;5067175;28;20439;-60
2022/08/13 03:08:36;;;;;;;1.58;0.30;;;;;;;17.12;78.02;100432.88;5066580;28;20066;-55
2022/08/13 03:11:03;;;;;;;1.13;0.50;;;;;;;17.19;78.04;100432.94;5066751;28;20039;-49
2022/08/13 03:13:35;;;;;;;1.17;0.30;;;;;;;17.20;79.63;100438.00;5052049;28;20476;-53
2022/08/13 03:16:03;;;;;;;1.48;0.32;;;;;;;17.11;79.66;100425.97;5066657;28;20033;-55
2022/08/13 03:18:29;;;;;;;1.63;0.30;;;;;;;17.15;80.11;100423.78;5066531;28;20377;-55
2022/08/13 03:20:55;;;;;;;0.68;0.30;;;;;;;17.11;81.96;100430.41;5066453;28;20052;-58
2022/08/13 03:23:23;;;;;;;0.70;0.20;;;;;;;17.00;83.00;100434.38;5067151;28;20472;-51
2022/08/13 03:25:50;;;;;;;2.75;0.60;;;;;;;17.01;80.80;100430.75;5064267;28;20086;-53
2022/08/13 03:28:16;;;;;;;0.90;0.30;;;;;;;17.14;80.15;100432.69;5065812;28;20032;-50
2022/08/13 03:30:41;;;;;;;0.75;0.30;;;;;;;17.22;81.55;100427.28;5068438;28;20191;-56
2022/08/13 03:33:10;;;;;;;0.57;0.38;;;;;;;17.14;82.13;100427.41;5064874;28;20033;-55
2022/08/13 03:35:37;;;;;;;1.70;0.30;;;;;;;17.10;83.34;100424.34;5064376;28;20093;-57
2022/08/13 03:38:05;;;;;;;0.50;0.20;;;;;;;17.09;83.72;100427.16;5063336;28;20160;-54
2022/08/13 03:43:16;;;;;;;2.97;0.40;;;;;;;16.98;84.86;100423.22;5066866;28;20156;-50
2022/08/13 03:45:44;;;;;;;2.78;0.60;;;;;;;16.91;85.48;100433.69;5065409;28;20027;-55
2022/08/13 03:48:14;;;;;;;1.15;0.30;;;;;;;16.96;83.62;100434.94;5057219;28;20032;-52
2022/08/13 03:50:44;;;;;;;0.40;0.20;;;;;;;17.06;82.61;100424.91;5065395;28;20028;-54
2022/08/13 03:53:10;;;;;;;3.80;0.30;;;;;;;17.08;83.38;100428.16;5061138;28;20020;-58
2022/08/13 03:55:37;;;;;;;1.95;0.30;;;;;;;17.17;81.14;100433.13;5067708;28;20027;-54
2022/08/13 03:58:05;;;;;;;0.43;0.20;;;;;;;17.26;80.66;100436.44;5059013;28;20455;-56
2022/08/13 04:00:32;;;;;;;2.22;0.43;;;;;;;17.29;81.41;100441.34;5048456;28;20082;-53
2022/08/13 04:03:00;;;;;;;2.80;1.00;;;;;;;17.27;80.28;100438.06;5055424;28;20032;-53
2022/08/13 04:05:26;;;;;;;1.15;0.30;;;;;;;17.34;77.42;100436.31;5048318;28;20028;-46
2022/08/13 04:07:53;;;;;;;0.52;0.20;;;;;;;17.40;76.51;100430.28;5067324;28;20060;-54
2022/08/13 04:10:19;;;;;;;1.23;0.38;;;;;;;17.46;77.87;100421.66;5053166;28;20116;-54
2022/08/13 04:12:46;;;;;;;1.45;0.32;;;;;;;17.45;78.89;100437.63;5065930;28;20044;-57
2022/08/13 04:15:12;;;;;;;1.48;0.30;;;;;;;17.43;77.54;100429.91;5066603;28;20024;-56
2022/08/13 04:17:38;;;;;;;0.95;0.20;;;;;;;17.50;78.00;100420.22;5069961;28;20025;-49
2022/08/13 04:20:05;;;;;;;1.50;0.32;;;;;;;17.51;78.67;100428.94;5069446;28;20708;-55
2022/08/13 04:22:30;;;;;;;1.52;0.38;;;;;;;17.55;77.75;100424.94;5069830;28;20392;-56
2022/08/13 04:24:58;;;;;;;0.40;0.25;;;;;;;17.64;76.37;100418.53;5071008;28;20438;-51
2022/08/13 04:27:24;;;;;;;0.50;0.20;;;;;;;17.67;75.12;100425.25;5038977;28;20444;-52
2022/08/13 04:29:51;;;;;;;0.40;0.20;;;;;;;17.66;75.52;100424.44;5071435;28;20127;-51
2022/08/13 04:32:19;;;;;;;1.73;0.30;;;;;;;17.65;74.70;100425.44;5068592;28;20031;-53
2022/08/13 04:34:45;;;;;;;1.13;0.30;;;;;;;17.71;75.68;100426.50;5056257;28;20032;-54
2022/08/13 04:37:11;;;;;;;1.98;0.35;;;;;;;17.76;74.42;100422.28;5067561;28;20029;-54
2022/08/13 04:39:37;;;;;;;0.73;0.30;;;;;;;17.82;75.42;100433.88;5070940;28;20039;-53
2022/08/13 04:42:03;;;;;;;0.90;0.25;;;;;;;17.77;76.43;100438.91;5061113;28;20062;-48
2022/08/13 04:44:28;;;;;;;0.60;0.30;;;;;;;17.75;76.85;100431.19;5068562;28;20452;-56
2022/08/13 04:46:55;;;;;;;5.28;0.30;;;;;;;17.76;75.53;100439.91;5069484;28;20040;-60
2022/08/13 04:49:20;;;;;;;0.82;0.30;;;;;;;17.82;74.66;100433.88;5061543;28;20040;-53
2022/08/13 04:51:46;;;;;;;1.25;0.60;;;;;;;17.87;74.21;100439.41;5049886;28;20024;-50
2022/08/13 04:54:11;;;;;;;1.48;0.30;;;;;;;17.91;75.24;100438.00;5062768;28;20368;-47
2022/08/13 04:56:37;;;;;;;0.40;0.30;;;;;;;17.92;74.90;100439.63;5068110;28;20383;-55
2022/08/13 04:59:03;;;;;;;0.55;0.30;;;;;;;17.91;74.88;100430.09;5069289;28;20029;-57
2022/08/13 05:01:29;;;;;;;0.80;0.22;;;;;;;17.91;73.63;100424.84;5042444;28;20044;-59
2022/08/13 05:03:55;;;;;;;1.58;0.20;;;;;;;17.89;72.38;100426.84;5035917;28;20489;-51
2022/08/13 05:06:21;;;;;;;1.92;0.20;;;;;;;17.93;72.64;100427.28;5051020;28;20119;-53
2022/08/13 05:08:48;;;;;;;0.73;0.20;;;;;;;18.00;72.77;100423.66;5057752;28;20102;-55
2022/08/13 05:11:17;;;;;;;0.50;0.30;;;;;;;18.10;72.62;100433.84;5070539;28;20033;-59
2022/08/13 05:13:43;;;;;;;0.30;0.15;;;;;;;18.19;71.76;100432.69;5050649;28;20031;-52
2022/08/13 05:16:12;;;;;;;2.50;0.20;;;;;;;18.27;71.17;100435.16;5051656;28;20032;-54
2022/08/13 05:18:45;;;;;;;1.23;0.30;;;;;;;18.36;70.20;100433.19;5034641;28;20029;-51
2022/08/13 05:21:11;;;;;;;1.38;0.25;;;;;;;18.38;69.24;100431.16;5051347;28;20025;-61
2022/08/13 05:23:39;;;;;;;1.65;0.20;;;;;;;18.36;68.45;100431.38;5051356;28;20698;-53
2022/08/13 05:26:05;;;;;;;0.80;0.20;;;;;;;18.35;69.00;100437.66;5043977;28;20070;-49
2022/08/13 05:28:31;;;;;;;1.13;0.25;;;;;;;18.35;69.97;100436.84;5066649;28;20028;-55
2022/08/13 05:30:57;;;;;;;1.58;0.30;;;;;;;18.34;69.82;100436.03;5068262;28;20025;-56
2022/08/13 05:33:26;;;;;;;2.42;0.30;;;;;;;18.38;70.52;100437.25;5062411;28;20045;-55
2022/08/13 05:35:58;;;;;;;4.93;0.40;;;;;;;18.42;70.56;100438.50;5068604;28;20037;-52
2022/08/13 05:38:25;;;;;;;1.10;0.30;;;;;;;18.50;69.32;100432.22;5067912;28;20048;-57
2022/08/13 05:40:53;;;;;;;0.98;0.30;;;;;;;18.53;69.60;100435.28;5069812;28;20063;-49
2022/08/13 05:43:23;;;;;;;0.50;0.22;;;;;;;18.56;69.88;100429.59;5068656;28;20392;-52
2022/08/13 05:45:54;;;;;;;0.90;0.45;;;;;;;18.67;68.18;100435.38;5058944;28;20029;-53
2022/08/13 05:48:20;;;;;;;0.88;0.30;;;;;;;18.78;68.54;100430.34;5068437;28;20090;-57
2022/08/13 05:50:45;;;;;;;2.63;0.20;;;;;;;18.93;68.29;100435.41;5053639;28;20020;-55
2022/08/13 05:53:11;;;;;;;1.73;0.20;;;;;;;19.05;68.45;100433.84;5066974;28;20047;-55
2022/08/13 05:55:39;;;;;;;1.58;0.40;;;;;;;19.17;67.42;100437.50;5068691;28;20111;-54
2022/08/13 05:58:06;;;;;;;1.38;0.20;;;;;;;19.19;67.38;100434.66;5051226;28;20032;-54
2022/08/13 06:03:27;;;;;;;1.15;0.25;;;;;;;19.23;68.35;100441.19;5049546;28;20105;-52
2022/08/13 06:05:58;;;;;;;1.75;0.47;;;;;;;19.32;67.27;100444.44;5075683;28;20131;-54
2022/08/13 06:08:30;;;;;;;0.40;0.25;;;;;;;19.42;66.57;100445.66;5065084;28;20052;-54
2022/08/13 06:11:00;;;;;;;0.55;0.30;;;;;;;19.54;66.38;100446.72;5067929;28;20376;-55
2022/08/13 06:13:28;;;;;;;1.15;0.22;;;;;;;19.69;66.60;100441.22;5067609;28;20040;-57
2022/08/13 06:15:58;;;;;;;0.30;0.20;;;;;;;19.78;65.19;100441.81;5059176;28;20032;-58
2022/08/13 06:18:31;;;;;;;1.17;0.40;;;;;;;19.69;64.17;100435.13;5058574;28;20035;-60
2022/08/13 06:21:04;;;;;;;1.30;0.20;;;;;;;19.59;64.37;100438.16;5065899;28;20445;-57
2022/08/13 06:23:32;;;;;;;0.85;0.20;;;;;;;19.55;66.31;100439.59;5067754;28;20034;-57
2022/08/13 06:25:59;;;;;;;0.82;0.30;;;;;;;19.48;65.50;100439.56;5067194;28;20038;-52
2022/08/13 06:28:28;;;;;;;0.70;0.20;;;;;;;19.40;64.67;100437.13;5065227;28;20102;-54
2022/08/13 06:30:58;;;;;;;0.75;0.20;;;;;;;19.38;65.53;100441.78;5066510;28;20039;-59
2022/08/13 06:33:25;;;;;;;4.00;0.30;;;;;;;19.31;66.19;100448.09;5062935;28;20090;-56
2022/08/13 06:35:53;;;;;;;0.73;0.20;;;;;;;19.15;67.26;100442.19;5065663;28;20028;-50
2022/08/13 06:38:22;;;;;;;1.27;0.30;;;;;;;19.06;67.68;100450.50;5067214;28;20036;-53
2022/08/13 06:40:49;;;;;;;1.52;0.30;;;;;;;19.04;67.46;100441.94;5067490;28;20032;-58
2022/08/13 06:43:18;;;;;;;2.67;0.30;;;;;;;19.04;67.91;100447.22;5066314;28;20392;-53
2022/08/13 06:45:46;;;;;;;1.80;0.30;;;;;;;19.07;67.95;100446.84;5062421;28;20052;-57
2022/08/13 06:48:12;;;;;;;1.83;0.65;;;;;;;19.09;67.74;100444.81;5059479;28;20040;-53
2022/08/13 06:50:38;;;;;;;1.63;0.20;;;;;;;19.09;67.42;100452.72;5058104;28;20164;-60
2022/08/13 06:53:05;;;;;;;5.15;0.20;;;;;;;19.11;67.80;100442.78;5061531;28;20870;-58
2022/08/13 06:55:31;;;;;;;0.60;0.22;;;;;;;19.16;67.47;100448.28;5065905;28;20090;-55
2022/08/13 06:57:57;;;;;;;0.80;0.28;;;;;;;19.21;67.99;100446.66;5068817;28;20393;-57
2022/08/13 07:00:25;;;;;;;1.48;0.38;;;;;;;19.25;68.07;100451.53;5067487;28;20033;-58
2022/08/13 07:02:52;;;;;;;0.85;0.50;;;;;;;19.28;67.95;100459.06;5058022;28;20036;-56
2022/08/13 07:05:30;;;;;;;1.42;0.40;;;;;;;19.34;67.68;100458.28;5066799;28;20453;-57
2022/08/13 07:07:56;;;;;;;1.30;0.30;;;;;;;19.40;67.47;100466.16;5053665;28;20193;-53
2022/08/13 07:10:22;;;;;;;0.88;0.30;;;;;;;19.46;67.88;100465.38;5062916;28;20024;-57
2022/08/13 07:12:48;;;;;;;1.88;0.40;;;;;;;19.50;66.73;100458.66;5068279;28;20086;-56
2022/08/13 07:15:16;;;;;;;1.45;0.20;;;;;;;19.53;67.28;100457.47;5032162;28;20039;-53
2022/08/13 07:17:42;;;;;;;1.40;0.30;;;;;;;19.57;67.14;100453.41;5064069;28;20489;-55
2022/08/13 07:20:10;;;;;;;1.55;0.30;;;;;;;19.55;66.75;100456.25;5072740;28;20094;-56
2022/08/13 07:22:35;;;;;;;0.40;0.20;;;;;;;19.56;66.84;100451.78;5045450;28;20129;-57
2022/08/13 07:25:03;;;;;;;0.82;0.30;;;;;;;19.60;67.51;100441.63;5064363;28;20113;-56
2022/08/13 07:27:30;;;;;;;1.85;0.28;;;;;;;19.65;67.75;100437.34;5070786;28;20035;-57
2022/08/13 07:29:57;;;;;;;3.42;0.30;;;;;;;19.74;68.58;100443.25;5078557;28;20130;-53
2022/08/13 07:32:23;;;;;;;0.52;0.20;;;;;;;19.81;69.25;100438.78;5068467;28;20552;-56
2022/08/13 07:34:49;;;;;;;1.63;0.30;;;;;;;19.75;69.70;100439.59;5070237;28;20028;-52
2022/08/13 07:37:20;;;;;;;0.52;0.30;;;;;;;19.74;67.67;100437.97;5065823;28;20028;-57
2022/08/13 07:39:46;;;;;;;2.05;0.20;;;;;;;19.79;69.39;100444.28;5067754;28;20146;-58
2022/08/13 07:42:15;;;;;;;0.93;0.20;;;;;;;19.87;69.50;100451.16;5063650;28;20472;-52
2022/08/13 07:44:41;;;;;;;0.98;0.20;;;;;;;19.92;68.84;100451.34;5046255;28;20787;-53
2022/08/13 07:47:15;;;;;;;0.38;0.20;;;;;;;20.00;68.86;100442.38;5060352;28;20364;-55
2022/08/13 07:49:41;;;;;;;3.70;0.30;;;;;;;20.08;69.41;100450.09;5064489;28;20082;-55
2022/08/13 07:52:09;;;;;;;0.85;0.20;;;;;;;20.17;69.87;100441.75;5066002;28;20153;-55
2022/08/13 07:54:34;;;;;;;0.52;0.30;;;;;;;20.26;69.63;100454.75;5050473;28;20051;-56
2022/08/13 07:57:01;;;;;;;0.70;0.30;;;;;;;20.37;70.45;100451.44;5060909;28;20400;-58
2022/08/13 07:59:28;;;;;;;1.08;0.30;;;;;;;20.48;70.29;100453.47;5068360;28;20107;-52
2022/08/13 08:01:55;;;;;;;2.78;0.40;;;;;;;20.59;70.29;100447.53;5074298;28;20032;-56
2022/08/13 08:04:27;;;;;;;2.97;0.30;;;;;;;20.67;71.54;100444.66;5066561;28;20035;-56
2022/08/13 08:06:53;;;;;;;4.18;0.20;;;;;;;20.58;69.78;100455.69;5065138;28;20037;-58
2022/08/13 08:09:24;;;;;;;2.33;0.30;;;;;;;20.54;69.49;100456.09;5063418;28;20047;-56
2022/08/13 08:14:36;;;;;;;0.60;0.20;;;;;;;20.71;71.52;100445.84;5067480;28;20064;-54
2022/08/13 08:17:05;;;;;;;1.77;0.20;;;;;;;20.80;70.95;100454.34;5064785;28;20048;-54
2022/08/13 08:19:31;;;;;;;0.55;0.20;;;;;;;20.92;70.90;100455.28;5059360;28;20043;-57
2022/08/13 08:21:59;;;;;;;0.32;0.20;;;;;;;21.00;70.33;100457.69;5065473;28;20032;-55
2022/08/13 08:24:26;;;;;;;2.15;0.30;;;;;;;21.10;69.96;100460.69;5064911;28;20056;-57
2022/08/13 08:26:55;;;;;;;0.60;0.30;;;;;;;21.18;69.91;100463.09;5069019;28;20029;-53
2022/08/13 08:29:21;;;;;;;1.10;0.38;;;;;;;21.24;69.33;100456.16;5053671;28;20032;-54
2022/08/13 08:31:49;;;;;;;1.55;0.50;;;;;;;21.31;70.50;100464.03;5068755;28;20067;-54
2022/08/13 08:34:17;;;;;;;1.20;0.30;;;;;;;21.27;69.15;100461.00;5081947;28;20544;-55
2022/08/13 08:36:43;;;;;;;2.70;0.20;;;;;;;21.28;70.04;100454.69;5063786;28;20032;-57
2022/08/13 08:44:41;;;;;;;0.63;0.38;;;;;;;21.44;69.15;100450.72;5060467;28;20082;-56
2022/08/13 08:47:07;;;;;;;2.25;0.30;;;;;;;21.41;68.61;100451.94;5073133;28;20032;-55
2022/08/13 08:49:34;;;;;;;0.90;0.30;;;;;;;21.36;67.03;100453.63;5068213;28;20035;-59
2022/08/13 08:52:02;;;;;;;0.50;0.20;;;;;;;21.41;66.40;100454.59;5072394;28;20515;-56
2022/08/13 08:54:29;;;;;;;0.85;0.20;;;;;;;21.48;64.83;100454.56;5068012;28;20372;-55
2022/08/13 09:00:18;;;;;;;1.48;0.20;;;;;;;21.57;63.12;100447.97;5059166;28;20306;-58
2022/08/13 09:02:46;;;;;;;1.20;0.28;;;;;;;21.64;63.19;100445.25;5060394;28;20097;-51
2022/08/13 09:05:15;;;;;;;0.93;0.20;;;;;;;21.65;61.37;100447.69;5055788;28;20032;-57
2022/08/13 09:07:45;;;;;;;0.73;0.28;;;;;;;21.80;58.76;100434.06;5056618;28;20040;-58
2022/08/13 09:10:11;;;;;;;0.60;0.30;;;;;;;21.87;58.29;100440.13;5057449;28;20040;-57
2022/08/13 09:12:41;;;;;;;0.80;0.20;;;;;;;21.88;56.47;100446.25;5078051;28;20093;-53
2022/08/13 09:15:07;;;;;;;0.40;0.20;;;;;;;21.92;57.21;100431.50;5054514;28;20125;-54
2022/08/13 09:17:33;;;;;;;0.60;0.30;;;;;;;21.91;57.03;100443.16;5058694;28;20029;-54
2022/08/13 09:20:00;;;;;;;0.95;0.32;;;;;;;21.92;56.90;100442.13;5060550;28;20154;-48
2022/08/13 09:22:25;;;;;;;1.05;0.35;;;;;;;21.92;56.56;100434.97;5066079;28;20017;-59
2022/08/13 09:24:56;;;;;;;0.70;0.30;;;;;;;21.87;55.42;100440.13;5065336;28;20036;-53
2022/08/13 09:27:22;;;;;;;0.77;0.30;;;;;;;21.87;56.40;100434.81;5037719;28;20040;-52
2022/08/13 09:29:50;;;;;;;0.63;0.25;;;;;;;21.88;55.91;100433.78;5064335;28;20984;-59
2022/08/13 09:32:48;;;;;;;1.90;0.38;;;;;;;21.88;52.96;100425.84;5058343;28;20029;-59
2022/08/13 09:35:14;;;;;;;4.80;0.40;;;;;;;21.86;56.69;100431.34;5067321;28;20116;-59
2022/08/13 09:37:40;;;;;;;1.42;0.30;;;;;;;21.88;54.64;100425.84;5082457;28;20058;-58
2022/08/13 09:40:12;;;;;;;0.60;0.20;;;;;;;21.86;54.05;100433.19;5062575;28;20461;-56
2022/08/13 09:42:54;;;;;;;0.60;0.20;;;;;;;21.87;52.18;100426.88;5055035;28;20036;-57
2022/08/13 09:45:20;;;;;;;2.67;0.30;;;;;;;21.80;54.69;100431.41;5063960;28;20396;-55
2022/08/13 09:47:45;;;;;;;1.65;0.30;;;;;;;21.80;55.91;100418.16;5061248;28;20043;-52
2022/08/13 09:50:11;;;;;;;1.02;0.30;;;;;;;21.77;54.95;100411.44;5054855;28;20032;-57
2022/08/13 09:52:37;;;;;;;4.13;0.40;;;;;;;21.75;55.44;100420.66;5056147;28;20029;-57
2022/08/13 09:55:04;;;;;;;0.60;0.30;;;;;;;21.69;57.71;100416.25;5048711;28;20037;-57
2022/08/13 09:57:30;;;;;;;0.80;0.20;;;;;;;21.69;57.22;100416.25;5048021;28;20036;-57
2022/08/13 09:59:56;;;;;;;0.52;0.20;;;;;;;21.72;57.13;100402.56;5041710;28;20392;-59
2022/08/13 10:02:22;;;;;;;0.70;0.30;;;;;;;21.73;55.79;100406.84;5029247;28;20472;-56
2022/08/13 10:04:52;;;;;;;0.95;0.28;;;;;;;21.79;56.05;100403.28;5070174;28;20473;-57
2022/08/13 10:07:19;;;;;;;2.10;0.30;;;;;;;21.79;56.08;100392.66;5071686;28;20047;-57
2022/08/13 10:09:45;;;;;;;0.55;0.22;;;;;;;21.80;55.77;100392.44;5043431;28;20154;-61
2022/08/13 10:12:11;;;;;;;0.75;0.30;;;;;;;21.83;55.64;100385.91;5069324;28;20032;-55
2022/08/13 10:14:37;;;;;;;1.55;0.30;;;;;;;21.91;56.07;100382.97;5065902;28;20033;-57
2022/08/13 10:17:04;;;;;;;0.50;0.20;;;;;;;21.95;55.81;100380.69;5061329;28;20089;-54
2022/08/13 10:19:30;;;;;;;2.40;0.30;;;;;;;21.99;55.38;100387.16;5064902;28;20041;-60
2022/08/13 10:21:55;;;;;;;1.52;0.20;;;;;;;21.96;56.23;100403.53;5060802;28;20420;-62
2022/08/13 10:24:21;;;;;;;0.38;0.20;;;;;;;22.03;56.39;100391.03;5063826;28;20024;-55
2022/08/13 10:26:46;;;;;;;0.93;0.20;;;;;;;21.96;56.76;100380.47;5054587;28;20412;-54
2022/08/13 10:29:12;;;;;;;1.75;0.30;;;;;;;21.99;56.66;100374.72;5064271;28;20031;-57
2022/08/13 10:31:38;;;;;;;20.25;1.05;;;;;;;22.05;56.08;100375.72;5073693;28;20037;-58
2022/08/13 10:34:05;;;;;;;3.72;0.60;;;;;;;22.12;56.13;100377.25;5063778;28;20020;-54
2022/08/13 10:36:33;;;;;;;0.82;0.30;;;;;;;22.14;55.58;100372.53;5067374;28;20117;-60
2022/08/13 10:38:59;;;;;;;0.95;0.30;;;;;;;22.21;55.30;100376.97;5069079;28;20384;-56
2022/08/13 10:41:25;;;;;;;0.70;0.20;;;;;;;22.20;56.06;100376.16;5069256;28;20047;-58
2022/08/13 10:43:59;;;;;;;2.70;0.30;;;;;;;22.16;57.04;100381.09;5071071;28;20388;-57
2022/08/13 10:46:30;;;;;;;1.27;0.20;;;;;;;22.17;56.42;100374.75;5068115;28;20044;-58
2022/08/13 10:48:58;;;;;;;0.90;0.20;;;;;;;22.22;56.45;100373.25;5051957;28;21678;-57
2022/08/13 10:51:24;;;;;;;1.58;0.38;;;;;;;22.32;56.30;100373.53;5050307;28;20511;-56
2022/08/13 10:53:55;;;;;;;0.52;0.20;;;;;;;22.36;56.71;100374.72;5064300;28;20028;-58
2022/08/13 10:56:22;;;;;;;1.80;0.20;;;;;;;22.39;56.63;100364.44;5065214;28;20079;-56
2022/08/13 10:58:49;;;;;;;0.90;0.20;;;;;;;22.44;58.90;100371.75;5068528;28;20040;-57
2022/08/13 11:01:15;;;;;;;0.93;0.30;;;;;;;22.48;58.77;100354.34;5068440;28;20050;-56
2022/08/13 11:03:44;;;;;;;0.60;0.20;;;;;;;22.49;57.54;100359.44;5045573;28;20480;-61
2022/08/13 11:06:11;;;;;;;1.77;0.30;;;;;;;22.58;57.26;100367.06;5065358;28;20036;-58
2022/08/13 11:08:40;;;;;;;0.60;0.15;;;;;;;22.80;54.31;100361.03;5059016;28;20118;-57
2022/08/13 11:11:06;;;;;;;0.70;0.30;;;;;;;22.88;55.33;100351.94;5066493;28;20033;-61
2022/08/13 11:13:32;;;;;;;0.77;0.20;;;;;;;22.92;54.86;100362.91;5070032;28;20496;-60
2022/08/13 11:16:01;;;;;;;0.35;0.20;;;;;;;23.03;51.75;100370.94;5065130;28;20187;-61
2022/08/13 11:21:48;;;;;;;0.30;0.10;;;;;;;23.16;51.57;100367.22;5060343;28;20071;-63
2022/08/13 11:24:14;;;;;;;0.88;0.20;;;;;;;23.21;51.84;100372.66;5064099;28;20115;-62
2022/08/13 11:26:39;;;;;;;0.50;0.20;;;;;;;23.15;52.21;100357.66;5066335;28;20124;-63
2022/08/13 11:29:05;;;;;;;1.60;0.20;;;;;;;23.13;52.88;100367.72;5069940;28;20111;-62
2022/08/13 11:31:32;;;;;;;0.30;0.20;;;;;;;23.10;51.25;100368.97;5068093;28;20472;-63
2022/08/13 11:33:57;;;;;;;0.38;0.20;;;;;;;23.10;51.37;100361.00;5071302;28;20020;-62
2022/08/13 11:36:23;;;;;;;2.45;0.20;;;;;;;23.11;51.78;100370.59;5067601;28;20244;-63
2022/08/13 11:38:48;;;;;;;0.75;0.20;;;;;;;23.10;51.73;100384.13;5044414;28;20036;-63
2022/08/13 11:41:14;;;;;;;1.38;0.20;;;;;;;23.16;51.18;100369.88;5070732;28;20031;-64
2022/08/13 11:43:40;;;;;;;0.52;0.20;;;;;;;23.12;51.82;100376.72;5071669;28;20382;-62
2022/08/13 11:46:05;;;;;;;0.50;0.17;;;;;;;23.11;51.93;100372.44;5074354;28;20032;-60
2022/08/13 11:48:31;;;;;;;0.30;0.20;;;;;;;23.05;52.18;100373.34;5059757;28;20029;-62
2022/08/13 11:50:57;;;;;;;0.82;0.30;;;;;;;23.05;52.28;100382.13;5059888;28;20073;-68
2022/08/13 11:53:24;;;;;;;1.25;0.63;;;;;;;23.06;52.66;100380.28;5067055;28;20444;-64
2022/08/13 11:55:50;;;;;;;0.50;0.20;;;;;;;22.99;50.38;100374.25;5064616;28;20067;-63